NWS4215 ULLI-ULMM
Flight info
| Callsign | NWS4215 |
|---|---|
| Flight time | 1h 26m |
| Altitude | 35000 |
| Route | PETAP T457 LULOR/K0856F360 T693 ASGOR |
| Aircraft | A21N/M-SDE3FGHIRWY/LB1 |
Departure
| Time | 2026-04-26 14:25 |
|---|---|
| Airport | Pulkovo Airport (ULLI) |
Arrival
| Time | 2026-04-26 15:51 |
|---|---|
| Airport | Emperor Nicholas II Murmansk Airport (ULMM) |
| Time | Latitude | Longitude | Altitude | Speed | Heading |
|---|---|---|---|---|---|
| 2026-04-26 13:56 | 59.79772 | 30.26280 | 85 ft | 0 kts | 285° |
| 2026-04-26 14:14 | 59.79772 | 30.26279 | 85 ft | 0 kts | 286° |
| 2026-04-26 14:15 | 59.79774 | 30.26261 | 85 ft | 2 kts | 286° |
| 2026-04-26 14:15 | 59.79783 | 30.26205 | 85 ft | 3 kts | 287° |
| 2026-04-26 14:15 | 59.79794 | 30.26163 | 85 ft | 4 kts | 317° |
| 2026-04-26 14:15 | 59.79833 | 30.26159 | 85 ft | 7 kts | 11° |
| 2026-04-26 14:16 | 59.79893 | 30.26191 | 85 ft | 10 kts | 15° |
| 2026-04-26 14:16 | 59.79970 | 30.26236 | 85 ft | 12 kts | 17° |
| 2026-04-26 14:16 | 59.80055 | 30.26287 | 85 ft | 13 kts | 16° |
| 2026-04-26 14:16 | 59.80152 | 30.26344 | 85 ft | 14 kts | 15° |
| 2026-04-26 14:17 | 59.80226 | 30.26388 | 83 ft | 13 kts | 18° |
| 2026-04-26 14:17 | 59.80305 | 30.26436 | 80 ft | 8 kts | 12° |
| 2026-04-26 14:17 | 59.80371 | 30.26445 | 78 ft | 8 kts | 7° |
| 2026-04-26 14:17 | 59.80431 | 30.26490 | 76 ft | 9 kts | 48° |
| 2026-04-26 14:18 | 59.80434 | 30.26625 | 76 ft | 9 kts | 102° |
| 2026-04-26 14:18 | 59.80413 | 30.26763 | 76 ft | 12 kts | 107° |
| 2026-04-26 14:18 | 59.80386 | 30.26946 | 77 ft | 12 kts | 105° |
| 2026-04-26 14:18 | 59.80359 | 30.27125 | 75 ft | 14 kts | 106° |
| 2026-04-26 14:19 | 59.80328 | 30.27340 | 75 ft | 17 kts | 107° |
| 2026-04-26 14:19 | 59.80291 | 30.27583 | 76 ft | 19 kts | 106° |
| 2026-04-26 14:19 | 59.80251 | 30.27859 | 73 ft | 22 kts | 105° |
| 2026-04-26 14:19 | 59.80203 | 30.28170 | 72 ft | 24 kts | 106° |
| 2026-04-26 14:20 | 59.80158 | 30.28487 | 72 ft | 21 kts | 107° |
| 2026-04-26 14:20 | 59.80113 | 30.28776 | 72 ft | 22 kts | 106° |
| 2026-04-26 14:20 | 59.80065 | 30.29090 | 70 ft | 24 kts | 105° |
| 2026-04-26 14:20 | 59.80023 | 30.29378 | 71 ft | 17 kts | 105° |
| 2026-04-26 14:21 | 59.79991 | 30.29594 | 72 ft | 17 kts | 105° |
| 2026-04-26 14:21 | 59.79960 | 30.29843 | 72 ft | 19 kts | 110° |
| 2026-04-26 14:21 | 59.79964 | 30.30077 | 73 ft | 8 kts | 43° |
| 2026-04-26 14:21 | 59.79989 | 30.30126 | 72 ft | 0 kts | 47° |
| 2026-04-26 14:22 | 59.79990 | 30.30128 | 72 ft | 1 kts | 47° |
| 2026-04-26 14:23 | 59.80005 | 30.30162 | 72 ft | 5 kts | 46° |
| 2026-04-26 14:23 | 59.80037 | 30.30227 | 72 ft | 4 kts | 45° |
| 2026-04-26 14:23 | 59.80072 | 30.30274 | 72 ft | 7 kts | 16° |
| 2026-04-26 14:23 | 59.80124 | 30.30229 | 72 ft | 10 kts | 301° |
| 2026-04-26 14:24 | 59.80150 | 30.30082 | 72 ft | 12 kts | 287° |
| 2026-04-26 14:24 | 59.80193 | 30.29799 | 68 ft | 48 kts | 286° |
| 2026-04-26 14:24 | 59.80365 | 30.28696 | 69 ft | 115 kts | 292° |
| 2026-04-26 14:24 | 59.80619 | 30.26935 | 81 ft | 154 kts | 290° |
| 2026-04-26 14:25 | 59.80949 | 30.24729 | 413 ft | 174 kts | 294° |
| 2026-04-26 14:25 | 59.81276 | 30.22508 | 1333 ft | 168 kts | 296° |
| 2026-04-26 14:25 | 59.81583 | 30.20345 | 2114 ft | 166 kts | 298° |
| 2026-04-26 14:25 | 59.81935 | 30.18052 | 2548 ft | 181 kts | 298° |
| 2026-04-26 14:26 | 59.82316 | 30.15559 | 2971 ft | 198 kts | 298° |
| 2026-04-26 14:26 | 59.82735 | 30.12804 | 3319 ft | 221 kts | 297° |
| 2026-04-26 14:26 | 59.83197 | 30.09738 | 3699 ft | 243 kts | 296° |
| 2026-04-26 14:26 | 59.83675 | 30.06461 | 4458 ft | 251 kts | 295° |
| 2026-04-26 14:27 | 59.84147 | 30.03176 | 5292 ft | 254 kts | 294° |
| 2026-04-26 14:27 | 59.84663 | 29.99804 | 6039 ft | 258 kts | 299° |
| 2026-04-26 14:27 | 59.85391 | 29.96583 | 6742 ft | 258 kts | 307° |
| 2026-04-26 14:27 | 59.86349 | 29.93500 | 7404 ft | 263 kts | 311° |
| 2026-04-26 14:28 | 59.87347 | 29.90509 | 8069 ft | 266 kts | 311° |
| 2026-04-26 14:28 | 59.88377 | 29.87445 | 8427 ft | 267 kts | 311° |
| 2026-04-26 14:28 | 59.89409 | 29.84363 | 8475 ft | 267 kts | 310° |
| 2026-04-26 14:28 | 59.90421 | 29.81322 | 8479 ft | 265 kts | 310° |
| 2026-04-26 14:29 | 59.91488 | 29.78360 | 8468 ft | 260 kts | 321° |
| 2026-04-26 14:29 | 59.92943 | 29.76410 | 8481 ft | 248 kts | 343° |
| 2026-04-26 14:29 | 59.94607 | 29.75771 | 8490 ft | 244 kts | 2° |
| 2026-04-26 14:29 | 59.96311 | 29.75942 | 8496 ft | 244 kts | 4° |
| 2026-04-26 14:30 | 59.97996 | 29.76141 | 8545 ft | 249 kts | 5° |
| 2026-04-26 14:30 | 59.99738 | 29.76337 | 9134 ft | 254 kts | 5° |
| 2026-04-26 14:30 | 60.01474 | 29.76537 | 10057 ft | 252 kts | 4° |
| 2026-04-26 14:30 | 60.03261 | 29.76742 | 10519 ft | 265 kts | 4° |
| 2026-04-26 14:31 | 60.05144 | 29.76960 | 10881 ft | 282 kts | 5° |
| 2026-04-26 14:31 | 60.07179 | 29.77195 | 11224 ft | 298 kts | 5° |
| 2026-04-26 14:31 | 60.09247 | 29.77437 | 11801 ft | 305 kts | 3° |
| 2026-04-26 14:31 | 60.11368 | 29.77679 | 12544 ft | 308 kts | 3° |
| 2026-04-26 14:32 | 60.13507 | 29.77925 | 13235 ft | 311 kts | 4° |
| 2026-04-26 14:32 | 60.15666 | 29.78165 | 13966 ft | 314 kts | 4° |
| 2026-04-26 14:32 | 60.17839 | 29.78414 | 14643 ft | 317 kts | 4° |
| 2026-04-26 14:32 | 60.20018 | 29.78663 | 15245 ft | 321 kts | 4° |
| 2026-04-26 14:33 | 60.22259 | 29.78922 | 15876 ft | 325 kts | 4° |
| 2026-04-26 14:33 | 60.24527 | 29.79181 | 16495 ft | 329 kts | 4° |
| 2026-04-26 14:33 | 60.26806 | 29.79443 | 17077 ft | 333 kts | 4° |
| 2026-04-26 14:33 | 60.29111 | 29.79708 | 17647 ft | 337 kts | 4° |
| 2026-04-26 14:34 | 60.31466 | 29.80025 | 18212 ft | 340 kts | 7° |
| 2026-04-26 14:34 | 60.33779 | 29.80810 | 18748 ft | 344 kts | 13° |
| 2026-04-26 14:34 | 60.36098 | 29.82192 | 19334 ft | 347 kts | 19° |
| 2026-04-26 14:34 | 60.38339 | 29.83972 | 19876 ft | 350 kts | 22° |
| 2026-04-26 14:35 | 60.40590 | 29.85853 | 20394 ft | 354 kts | 22° |
| 2026-04-26 14:35 | 60.42862 | 29.87772 | 20921 ft | 357 kts | 22° |
| 2026-04-26 14:35 | 60.45148 | 29.89705 | 21403 ft | 361 kts | 22° |
| 2026-04-26 14:35 | 60.47477 | 29.91674 | 21890 ft | 364 kts | 22° |
| 2026-04-26 14:36 | 60.49788 | 29.93629 | 22358 ft | 367 kts | 22° |
| 2026-04-26 14:36 | 60.52156 | 29.95636 | 22838 ft | 370 kts | 23° |
| 2026-04-26 14:36 | 60.54524 | 29.97643 | 23322 ft | 372 kts | 23° |
| 2026-04-26 14:36 | 60.56912 | 29.99673 | 23778 ft | 374 kts | 23° |
| 2026-04-26 14:37 | 60.59300 | 30.01706 | 24216 ft | 377 kts | 23° |
| 2026-04-26 14:37 | 60.61745 | 30.03789 | 24632 ft | 380 kts | 23° |
| 2026-04-26 14:37 | 60.64167 | 30.05856 | 25016 ft | 382 kts | 23° |
| 2026-04-26 14:37 | 60.66625 | 30.07958 | 25345 ft | 385 kts | 23° |
| 2026-04-26 14:38 | 60.69075 | 30.10058 | 25644 ft | 388 kts | 23° |
| 2026-04-26 14:38 | 60.71582 | 30.12208 | 25918 ft | 392 kts | 23° |
| 2026-04-26 14:38 | 60.74099 | 30.14372 | 26174 ft | 395 kts | 23° |
| 2026-04-26 14:38 | 60.76634 | 30.16552 | 26431 ft | 398 kts | 23° |
| 2026-04-26 14:39 | 60.79158 | 30.18728 | 26678 ft | 401 kts | 23° |
| 2026-04-26 14:39 | 60.81735 | 30.20953 | 26915 ft | 404 kts | 23° |
| 2026-04-26 14:39 | 60.84314 | 30.23185 | 27158 ft | 406 kts | 23° |
| 2026-04-26 14:39 | 60.86904 | 30.25430 | 27398 ft | 409 kts | 22° |
| 2026-04-26 14:40 | 60.89529 | 30.27707 | 27638 ft | 411 kts | 22° |
| 2026-04-26 14:40 | 60.92171 | 30.30003 | 27856 ft | 414 kts | 22° |
| 2026-04-26 14:40 | 60.94826 | 30.32314 | 28072 ft | 416 kts | 22° |
| 2026-04-26 14:40 | 60.97494 | 30.34641 | 28288 ft | 419 kts | 22° |
| 2026-04-26 14:41 | 61.00168 | 30.36976 | 28500 ft | 421 kts | 22° |
| 2026-04-26 14:41 | 61.02850 | 30.39325 | 28696 ft | 424 kts | 22° |
| 2026-04-26 14:41 | 61.05579 | 30.41721 | 28910 ft | 426 kts | 22° |
| 2026-04-26 14:41 | 61.08279 | 30.44095 | 29092 ft | 429 kts | 22° |
| 2026-04-26 14:42 | 61.11032 | 30.46520 | 29288 ft | 431 kts | 22° |
| 2026-04-26 14:42 | 61.13800 | 30.48962 | 29485 ft | 433 kts | 22° |
| 2026-04-26 14:42 | 61.16537 | 30.51379 | 29726 ft | 433 kts | 22° |
| 2026-04-26 14:42 | 61.19312 | 30.53836 | 29991 ft | 433 kts | 22° |
| 2026-04-26 14:43 | 61.22058 | 30.56271 | 30188 ft | 435 kts | 22° |
| 2026-04-26 14:43 | 61.24823 | 30.58729 | 30409 ft | 435 kts | 22° |
| 2026-04-26 14:43 | 61.27608 | 30.61208 | 30595 ft | 435 kts | 22° |
| 2026-04-26 14:43 | 61.30400 | 30.63695 | 30750 ft | 436 kts | 22° |
| 2026-04-26 14:44 | 61.33145 | 30.66144 | 30912 ft | 437 kts | 23° |
| 2026-04-26 14:44 | 61.35935 | 30.68635 | 31084 ft | 438 kts | 23° |
| 2026-04-26 14:44 | 61.38739 | 30.71143 | 31263 ft | 439 kts | 23° |
| 2026-04-26 14:44 | 61.41549 | 30.73662 | 31437 ft | 439 kts | 23° |
| 2026-04-26 14:45 | 61.44326 | 30.76156 | 31618 ft | 440 kts | 23° |
| 2026-04-26 14:45 | 61.46221 | 30.77860 | 31734 ft | 440 kts | 22° |
| 2026-04-26 14:45 | 61.49970 | 30.81239 | 31836 ft | 445 kts | 22° |
| 2026-04-26 14:46 | 61.55673 | 30.86393 | 31968 ft | 453 kts | 22° |
| 2026-04-26 14:46 | 61.61509 | 30.91692 | 32091 ft | 460 kts | 22° |
| 2026-04-26 14:47 | 61.67375 | 30.97039 | 32204 ft | 465 kts | 22° |
| 2026-04-26 14:47 | 61.73298 | 31.02461 | 32305 ft | 470 kts | 22° |
| 2026-04-26 14:48 | 61.79321 | 31.07999 | 32478 ft | 472 kts | 23° |
| 2026-04-26 14:48 | 61.82303 | 31.10749 | 32579 ft | 472 kts | 23° |
| 2026-04-26 14:48 | 61.85298 | 31.13519 | 32673 ft | 472 kts | 22° |
| 2026-04-26 14:49 | 61.91295 | 31.19081 | 32845 ft | 473 kts | 22° |
| 2026-04-26 14:49 | 61.97269 | 31.24644 | 33012 ft | 473 kts | 22° |
| 2026-04-26 14:50 | 62.03303 | 31.30287 | 33212 ft | 474 kts | 22° |
| 2026-04-26 14:50 | 62.06294 | 31.33092 | 33328 ft | 474 kts | 22° |
| 2026-04-26 14:50 | 62.09308 | 31.35925 | 33446 ft | 474 kts | 22° |
| 2026-04-26 14:50 | 62.12305 | 31.38749 | 33568 ft | 474 kts | 23° |
| 2026-04-26 14:51 | 62.15298 | 31.41575 | 33687 ft | 474 kts | 23° |
| 2026-04-26 14:51 | 62.18302 | 31.44418 | 33805 ft | 474 kts | 23° |
| 2026-04-26 14:51 | 62.21321 | 31.47283 | 33915 ft | 473 kts | 23° |
| 2026-04-26 14:51 | 62.24301 | 31.50115 | 34017 ft | 473 kts | 23° |
| 2026-04-26 14:52 | 62.27303 | 31.52975 | 34114 ft | 473 kts | 23° |
| 2026-04-26 14:52 | 62.30302 | 31.55839 | 34216 ft | 473 kts | 23° |
| 2026-04-26 14:52 | 62.33313 | 31.58721 | 34312 ft | 473 kts | 22° |
| 2026-04-26 14:53 | 62.39317 | 31.64485 | 34485 ft | 474 kts | 22° |
| 2026-04-26 14:53 | 62.45291 | 31.70242 | 34545 ft | 474 kts | 24° |
| 2026-04-26 14:54 | 62.51275 | 31.76034 | 34542 ft | 474 kts | 24° |
| 2026-04-26 14:54 | 62.57263 | 31.81856 | 34551 ft | 474 kts | 24° |
| 2026-04-26 14:55 | 62.63263 | 31.87718 | 34553 ft | 474 kts | 24° |
| 2026-04-26 14:55 | 62.69375 | 31.92957 | 34550 ft | 474 kts | 17° |
| 2026-04-26 14:56 | 62.75755 | 31.96207 | 34545 ft | 472 kts | 6° |
| 2026-04-26 14:56 | 62.82277 | 31.97396 | 34553 ft | 472 kts | 1° |
| 2026-04-26 14:57 | 62.88823 | 31.97353 | 34569 ft | 472 kts | 358° |
| 2026-04-26 14:57 | 62.95376 | 31.97082 | 34597 ft | 472 kts | 358° |
| 2026-04-26 14:58 | 63.01909 | 31.96801 | 34610 ft | 472 kts | 358° |
| 2026-04-26 14:58 | 63.08424 | 31.96527 | 34605 ft | 472 kts | 358° |
| 2026-04-26 14:59 | 63.14999 | 31.96254 | 34610 ft | 472 kts | 358° |
| 2026-04-26 14:59 | 63.21527 | 31.95984 | 34616 ft | 472 kts | 358° |
| 2026-04-26 15:00 | 63.28080 | 31.95710 | 34617 ft | 473 kts | 358° |
| 2026-04-26 15:00 | 63.34608 | 31.95586 | 34620 ft | 473 kts | 0° |
| 2026-04-26 15:01 | 63.41171 | 31.95866 | 34615 ft | 473 kts | 1° |
| 2026-04-26 15:01 | 63.47721 | 31.96210 | 34613 ft | 472 kts | 1° |
| 2026-04-26 15:02 | 63.54237 | 31.96552 | 34619 ft | 472 kts | 1° |
| 2026-04-26 15:02 | 63.60784 | 31.96889 | 34619 ft | 473 kts | 1° |
| 2026-04-26 15:03 | 63.67359 | 31.97224 | 34630 ft | 473 kts | 1° |
| 2026-04-26 15:03 | 63.73908 | 31.97556 | 34643 ft | 474 kts | 1° |
| 2026-04-26 15:04 | 63.80503 | 31.97892 | 34651 ft | 474 kts | 1° |
| 2026-04-26 15:04 | 63.87062 | 31.98228 | 34657 ft | 474 kts | 0° |
| 2026-04-26 15:05 | 63.93597 | 31.98564 | 34662 ft | 474 kts | 1° |
| 2026-04-26 15:05 | 64.00153 | 31.98902 | 34665 ft | 474 kts | 1° |
| 2026-04-26 15:06 | 64.06715 | 31.99242 | 34672 ft | 474 kts | 1° |
| 2026-04-26 15:06 | 64.13258 | 31.99582 | 34676 ft | 473 kts | 1° |
| 2026-04-26 15:07 | 64.23095 | 32.00097 | 34675 ft | 472 kts | 1° |
| 2026-04-26 15:07 | 64.29621 | 32.00444 | 34682 ft | 472 kts | 1° |
| 2026-04-26 15:08 | 64.36143 | 32.00791 | 34683 ft | 472 kts | 0° |
| 2026-04-26 15:08 | 64.42686 | 32.01139 | 34687 ft | 473 kts | 0° |
| 2026-04-26 15:09 | 64.49223 | 32.01487 | 34691 ft | 473 kts | 0° |
| 2026-04-26 15:09 | 64.55764 | 32.01838 | 34694 ft | 473 kts | 0° |
| 2026-04-26 15:10 | 64.61217 | 32.02132 | 34695 ft | 473 kts | 0° |
| 2026-04-26 15:10 | 64.68848 | 32.02542 | 34699 ft | 473 kts | 1° |
| 2026-04-26 15:11 | 64.75400 | 32.02896 | 34704 ft | 472 kts | 1° |
| 2026-04-26 15:11 | 64.81945 | 32.03253 | 34709 ft | 472 kts | 0° |
| 2026-04-26 15:12 | 64.88470 | 32.03609 | 34710 ft | 473 kts | 0° |
| 2026-04-26 15:12 | 64.95007 | 32.03973 | 34714 ft | 473 kts | 0° |
| 2026-04-26 15:13 | 65.01569 | 32.04350 | 34718 ft | 474 kts | 0° |
| 2026-04-26 15:13 | 65.08140 | 32.04722 | 34716 ft | 473 kts | 0° |
| 2026-04-26 15:14 | 65.14690 | 32.05092 | 34718 ft | 473 kts | 0° |
| 2026-04-26 15:14 | 65.21253 | 32.05463 | 34716 ft | 473 kts | 0° |
| 2026-04-26 15:15 | 65.27784 | 32.05834 | 34719 ft | 473 kts | 0° |
| 2026-04-26 15:15 | 65.34338 | 32.06210 | 34723 ft | 473 kts | 0° |
| 2026-04-26 15:16 | 65.40927 | 32.06586 | 34722 ft | 474 kts | 0° |
| 2026-04-26 15:16 | 65.47475 | 32.06959 | 34718 ft | 473 kts | 0° |
| 2026-04-26 15:17 | 65.52953 | 32.07276 | 34723 ft | 473 kts | 0° |
| 2026-04-26 15:17 | 65.60575 | 32.07683 | 34723 ft | 473 kts | 0° |
| 2026-04-26 15:18 | 65.67112 | 32.07990 | 34726 ft | 473 kts | 0° |
| 2026-04-26 15:18 | 65.73682 | 32.08299 | 34730 ft | 474 kts | 0° |
| 2026-04-26 15:19 | 65.80269 | 32.08610 | 34734 ft | 474 kts | 0° |
| 2026-04-26 15:19 | 65.86824 | 32.08923 | 34742 ft | 474 kts | 0° |
| 2026-04-26 15:20 | 65.93360 | 32.09235 | 34741 ft | 473 kts | 0° |
| 2026-04-26 15:20 | 65.99909 | 32.09549 | 34742 ft | 473 kts | 0° |
| 2026-04-26 15:21 | 66.06467 | 32.09866 | 34750 ft | 473 kts | 0° |
| 2026-04-26 15:21 | 66.13048 | 32.10184 | 34751 ft | 474 kts | 0° |
| 2026-04-26 15:22 | 66.19611 | 32.10502 | 34753 ft | 474 kts | 0° |
| 2026-04-26 15:22 | 66.26178 | 32.10823 | 34754 ft | 473 kts | 0° |
| 2026-04-26 15:23 | 66.32722 | 32.11145 | 34757 ft | 473 kts | 0° |
| 2026-04-26 15:23 | 66.39241 | 32.12198 | 34762 ft | 473 kts | 6° |
| 2026-04-26 15:24 | 66.45715 | 32.14988 | 34767 ft | 474 kts | 12° |
| 2026-04-26 15:24 | 66.51990 | 32.18758 | 34772 ft | 474 kts | 13° |
| 2026-04-26 15:25 | 66.58333 | 32.22704 | 34772 ft | 475 kts | 13° |
| 2026-04-26 15:25 | 66.64728 | 32.26673 | 34772 ft | 475 kts | 13° |
| 2026-04-26 15:26 | 66.71114 | 32.30642 | 34768 ft | 470 kts | 13° |
| 2026-04-26 15:26 | 66.77316 | 32.34514 | 34748 ft | 459 kts | 13° |
| 2026-04-26 15:27 | 66.80396 | 32.36442 | 34536 ft | 457 kts | 13° |
| 2026-04-26 15:27 | 66.83430 | 32.38346 | 34301 ft | 455 kts | 13° |
| 2026-04-26 15:27 | 66.86496 | 32.40276 | 33914 ft | 453 kts | 13° |
| 2026-04-26 15:27 | 66.89522 | 32.42188 | 33377 ft | 453 kts | 13° |
| 2026-04-26 15:28 | 66.92594 | 32.44134 | 32805 ft | 456 kts | 13° |
| 2026-04-26 15:28 | 66.95634 | 32.46069 | 32242 ft | 461 kts | 12° |
| 2026-04-26 15:28 | 66.98763 | 32.48062 | 31592 ft | 466 kts | 12° |
| 2026-04-26 15:28 | 67.01886 | 32.50057 | 31033 ft | 468 kts | 12° |
| 2026-04-26 15:29 | 67.05011 | 32.52056 | 30592 ft | 466 kts | 12° |
| 2026-04-26 15:29 | 67.08151 | 32.54071 | 30072 ft | 464 kts | 12° |
| 2026-04-26 15:29 | 67.14301 | 32.58027 | 29236 ft | 452 kts | 12° |
| 2026-04-26 15:30 | 67.20300 | 32.61908 | 28364 ft | 443 kts | 12° |
| 2026-04-26 15:30 | 67.23258 | 32.63830 | 27918 ft | 439 kts | 12° |
| 2026-04-26 15:30 | 67.26208 | 32.65750 | 27463 ft | 434 kts | 13° |
| 2026-04-26 15:31 | 67.29095 | 32.67634 | 27008 ft | 430 kts | 13° |
| 2026-04-26 15:31 | 67.34814 | 32.71376 | 26101 ft | 422 kts | 13° |
| 2026-04-26 15:31 | 67.37631 | 32.73228 | 25594 ft | 418 kts | 13° |
| 2026-04-26 15:32 | 67.42263 | 32.76274 | 24715 ft | 411 kts | 12° |
| 2026-04-26 15:32 | 67.45971 | 32.77917 | 23987 ft | 405 kts | 5° |
| 2026-04-26 15:32 | 67.48725 | 32.78324 | 23454 ft | 400 kts | 360° |
| 2026-04-26 15:33 | 67.51494 | 32.78307 | 22919 ft | 396 kts | 358° |
| 2026-04-26 15:33 | 67.54240 | 32.78190 | 22382 ft | 393 kts | 358° |
| 2026-04-26 15:33 | 67.56915 | 32.78062 | 21844 ft | 389 kts | 358° |
| 2026-04-26 15:33 | 67.59617 | 32.77938 | 21226 ft | 388 kts | 358° |
| 2026-04-26 15:34 | 67.62288 | 32.77822 | 20653 ft | 386 kts | 358° |
| 2026-04-26 15:34 | 67.64967 | 32.77712 | 20146 ft | 381 kts | 358° |
| 2026-04-26 15:34 | 67.67567 | 32.77609 | 19683 ft | 376 kts | 358° |
| 2026-04-26 15:34 | 67.70157 | 32.77507 | 19237 ft | 371 kts | 358° |
| 2026-04-26 15:35 | 67.72693 | 32.77408 | 18801 ft | 366 kts | 358° |
| 2026-04-26 15:35 | 67.75230 | 32.77308 | 18360 ft | 361 kts | 358° |
| 2026-04-26 15:35 | 67.77687 | 32.77213 | 17935 ft | 356 kts | 358° |
| 2026-04-26 15:35 | 67.80173 | 32.77115 | 17499 ft | 352 kts | 358° |
| 2026-04-26 15:36 | 67.82571 | 32.77021 | 17082 ft | 348 kts | 358° |
| 2026-04-26 15:36 | 67.84985 | 32.76926 | 16650 ft | 344 kts | 358° |
| 2026-04-26 15:36 | 67.87340 | 32.76833 | 16227 ft | 341 kts | 358° |
| 2026-04-26 15:36 | 67.89699 | 32.76738 | 15811 ft | 337 kts | 358° |
| 2026-04-26 15:37 | 67.92027 | 32.76647 | 15401 ft | 333 kts | 358° |
| 2026-04-26 15:37 | 67.94340 | 32.76556 | 14994 ft | 330 kts | 358° |
| 2026-04-26 15:37 | 67.96614 | 32.76467 | 14587 ft | 327 kts | 358° |
| 2026-04-26 15:37 | 67.98875 | 32.76384 | 14183 ft | 324 kts | 358° |
| 2026-04-26 15:38 | 68.01119 | 32.76345 | 13775 ft | 322 kts | 358° |
| 2026-04-26 15:38 | 68.03332 | 32.76318 | 13366 ft | 320 kts | 359° |
| 2026-04-26 15:38 | 68.05522 | 32.76292 | 12956 ft | 317 kts | 358° |
| 2026-04-26 15:38 | 68.07716 | 32.76262 | 12551 ft | 315 kts | 358° |
| 2026-04-26 15:39 | 68.09895 | 32.76229 | 12162 ft | 312 kts | 359° |
| 2026-04-26 15:39 | 68.12054 | 32.76197 | 11765 ft | 309 kts | 358° |
| 2026-04-26 15:39 | 68.14174 | 32.76170 | 11371 ft | 307 kts | 359° |
| 2026-04-26 15:39 | 68.15602 | 32.76149 | 11105 ft | 305 kts | 358° |
| 2026-04-26 15:40 | 68.18396 | 32.76107 | 10581 ft | 302 kts | 358° |
| 2026-04-26 15:40 | 68.20475 | 32.76073 | 10193 ft | 300 kts | 358° |
| 2026-04-26 15:40 | 68.22514 | 32.76042 | 10063 ft | 287 kts | 358° |
| 2026-04-26 15:40 | 68.24471 | 32.76013 | 9943 ft | 275 kts | 358° |
| 2026-04-26 15:41 | 68.26331 | 32.75986 | 9814 ft | 264 kts | 358° |
| 2026-04-26 15:41 | 68.28123 | 32.75956 | 9646 ft | 255 kts | 358° |
| 2026-04-26 15:41 | 68.29895 | 32.75921 | 9288 ft | 255 kts | 358° |
| 2026-04-26 15:41 | 68.31663 | 32.75892 | 8959 ft | 253 kts | 358° |
| 2026-04-26 15:42 | 68.33389 | 32.75863 | 8649 ft | 250 kts | 358° |
| 2026-04-26 15:42 | 68.35123 | 32.75835 | 8362 ft | 247 kts | 358° |
| 2026-04-26 15:42 | 68.36827 | 32.75809 | 8063 ft | 244 kts | 358° |
| 2026-04-26 15:42 | 68.38508 | 32.75783 | 7760 ft | 242 kts | 358° |
| 2026-04-26 15:43 | 68.40179 | 32.75757 | 7452 ft | 241 kts | 358° |
| 2026-04-26 15:43 | 68.41833 | 32.75731 | 7144 ft | 239 kts | 358° |
| 2026-04-26 15:43 | 68.45136 | 32.76011 | 6534 ft | 236 kts | 1° |
| 2026-04-26 15:44 | 68.46748 | 32.76188 | 6237 ft | 234 kts | 1° |
| 2026-04-26 15:44 | 68.49980 | 32.76540 | 5744 ft | 226 kts | 1° |
| 2026-04-26 15:44 | 68.51524 | 32.76715 | 5740 ft | 224 kts | 2° |
| 2026-04-26 15:45 | 68.54630 | 32.77434 | 5242 ft | 223 kts | 4° |
| 2026-04-26 15:45 | 68.56168 | 32.77822 | 4963 ft | 220 kts | 4° |
| 2026-04-26 15:46 | 68.58943 | 32.80434 | 4355 ft | 223 kts | 47° |
| 2026-04-26 15:46 | 68.59787 | 32.83989 | 4055 ft | 223 kts | 54° |
| 2026-04-26 15:46 | 68.60612 | 32.87512 | 3744 ft | 222 kts | 52° |
| 2026-04-26 15:46 | 68.61179 | 32.89867 | 3532 ft | 221 kts | 52° |
| 2026-04-26 15:47 | 68.62293 | 32.94459 | 3123 ft | 219 kts | 52° |
| 2026-04-26 15:47 | 68.64453 | 32.99497 | 2555 ft | 201 kts | 357° |
| 2026-04-26 15:47 | 68.65747 | 32.98331 | 2633 ft | 191 kts | 327° |
| 2026-04-26 15:48 | 68.66760 | 32.96285 | 2614 ft | 174 kts | 325° |
| 2026-04-26 15:48 | 68.67674 | 32.94551 | 2582 ft | 150 kts | 327° |
| 2026-04-26 15:48 | 68.68530 | 32.92986 | 2421 ft | 147 kts | 327° |
| 2026-04-26 15:48 | 68.69366 | 32.91452 | 2205 ft | 144 kts | 327° |
| 2026-04-26 15:49 | 68.70200 | 32.89909 | 2003 ft | 143 kts | 327° |
| 2026-04-26 15:49 | 68.71019 | 32.88391 | 1801 ft | 143 kts | 327° |
| 2026-04-26 15:49 | 68.71844 | 32.86859 | 1603 ft | 143 kts | 327° |
| 2026-04-26 15:49 | 68.72661 | 32.85341 | 1407 ft | 142 kts | 326° |
| 2026-04-26 15:50 | 68.73476 | 32.83831 | 1216 ft | 142 kts | 326° |
| 2026-04-26 15:50 | 68.74300 | 32.82306 | 1020 ft | 141 kts | 326° |
| 2026-04-26 15:50 | 68.75107 | 32.80810 | 827 ft | 141 kts | 326° |
| 2026-04-26 15:50 | 68.75918 | 32.79310 | 631 ft | 140 kts | 326° |
| 2026-04-26 15:51 | 68.76711 | 32.77842 | 433 ft | 137 kts | 326° |
| 2026-04-26 15:51 | 68.77490 | 32.76400 | 266 ft | 129 kts | 326° |
| 2026-04-26 15:51 | 68.78129 | 32.75217 | 261 ft | 86 kts | 326° |
| 2026-04-26 15:51 | 68.78484 | 32.74560 | 261 ft | 37 kts | 326° |
| 2026-04-26 15:52 | 68.78596 | 32.74355 | 258 ft | 14 kts | 326° |
| 2026-04-26 15:52 | 68.78698 | 32.74165 | 256 ft | 21 kts | 326° |
| 2026-04-26 15:52 | 68.78825 | 32.73929 | 253 ft | 20 kts | 326° |
| 2026-04-26 15:52 | 68.78902 | 32.73788 | 251 ft | 16 kts | 326° |
| 2026-04-26 15:53 | 68.79036 | 32.73539 | 246 ft | 16 kts | 326° |
| 2026-04-26 15:53 | 68.79114 | 32.73492 | 243 ft | 7 kts | 29° |
| 2026-04-26 15:53 | 68.79150 | 32.73613 | 244 ft | 8 kts | 56° |
| 2026-04-26 15:53 | 68.79177 | 32.73746 | 244 ft | 7 kts | 81° |
| 2026-04-26 15:54 | 68.79150 | 32.73869 | 245 ft | 7 kts | 144° |
| 2026-04-26 15:54 | 68.79111 | 32.73939 | 247 ft | 6 kts | 154° |
| 2026-04-26 15:54 | 68.79064 | 32.73931 | 247 ft | 8 kts | 199° |
| 2026-04-26 15:54 | 68.78992 | 32.73851 | 248 ft | 13 kts | 205° |
| 2026-04-26 15:55 | 68.78902 | 32.73799 | 251 ft | 14 kts | 156° |
| 2026-04-26 15:55 | 68.78809 | 32.73965 | 253 ft | 17 kts | 146° |
| 2026-04-26 15:55 | 68.78700 | 32.74170 | 256 ft | 20 kts | 146° |
| 2026-04-26 15:55 | 68.78575 | 32.74395 | 259 ft | 23 kts | 147° |
| 2026-04-26 15:56 | 68.78434 | 32.74652 | 261 ft | 25 kts | 145° |
| 2026-04-26 15:56 | 68.78327 | 32.74854 | 261 ft | 12 kts | 143° |
| 2026-04-26 15:56 | 68.78308 | 32.75034 | 261 ft | 9 kts | 68° |
| 2026-04-26 15:56 | 68.78355 | 32.75209 | 258 ft | 11 kts | 55° |
| 2026-04-26 15:57 | 68.78400 | 32.75404 | 255 ft | 7 kts | 57° |
| 2026-04-26 15:57 | 68.78394 | 32.75553 | 253 ft | 8 kts | 139° |
| 2026-04-26 15:57 | 68.78367 | 32.75698 | 251 ft | 9 kts | 75° |
| 2026-04-26 15:57 | 68.78394 | 32.75776 | 249 ft | 6 kts | 13° |
| 2026-04-26 15:58 | 68.78419 | 32.75759 | 249 ft | 0 kts | 333° |
| 2026-04-26 15:58 | 68.78424 | 32.75753 | 249 ft | 1 kts | 335° |
| 2026-04-26 15:58 | 68.78426 | 32.75750 | 249 ft | 0 kts | 334° |